createdAt,value
2019-02-03T00:00:45.335Z,993.06
2019-02-03T00:01:43.970Z,993.08
2019-02-03T00:02:42.581Z,993.03
2019-02-03T00:03:41.243Z,993.1
2019-02-03T00:04:39.803Z,993.06
2019-02-03T00:05:38.324Z,993.1
2019-02-03T00:06:36.908Z,993.14
2019-02-03T00:07:35.479Z,993.12
2019-02-03T00:08:34.136Z,993.14
2019-02-03T00:09:32.694Z,993.1
2019-02-03T00:10:31.249Z,993.08
2019-02-03T00:11:29.822Z,993.09
2019-02-03T00:12:28.378Z,993.16
2019-02-03T00:13:27.006Z,993.11
2019-02-03T00:14:25.675Z,993.08
2019-02-03T00:15:24.159Z,993.06
2019-02-03T00:16:22.777Z,993.05
2019-02-03T00:17:21.499Z,993.07
2019-02-03T00:18:20.039Z,993.15
2019-02-03T00:19:18.593Z,993.08
2019-02-03T00:20:17.401Z,993.08
2019-02-03T00:21:16.046Z,993.07
2019-02-03T00:22:14.612Z,993.07
2019-02-03T00:23:13.287Z,993.11
2019-02-03T00:24:11.904Z,993.13
2019-02-03T00:25:10.510Z,993.11
2019-02-03T00:26:09.288Z,993.08
2019-02-03T00:27:07.832Z,993.18
2019-02-03T00:28:06.362Z,993.1
2019-02-03T00:29:04.909Z,993.06
2019-02-03T00:30:03.474Z,993.1
2019-02-03T00:31:02.002Z,993.07
2019-02-03T00:32:00.556Z,993.13
2019-02-03T00:32:59.278Z,993.1
2019-02-03T00:33:57.832Z,993.06
2019-02-03T00:34:56.336Z,993.12
2019-02-03T00:35:54.881Z,993.12
2019-02-03T00:36:53.531Z,993.16
2019-02-03T00:37:52.143Z,993.12
2019-02-03T00:38:50.681Z,993.1
2019-02-03T00:39:49.259Z,993.16
2019-02-03T00:40:47.892Z,993.15
2019-02-03T00:41:46.433Z,993.17
2019-02-03T00:42:45.023Z,993.19
2019-02-03T00:43:43.607Z,993.16
2019-02-03T00:44:42.151Z,993.21
2019-02-03T00:45:40.688Z,993.18
2019-02-03T00:46:39.206Z,993.26
2019-02-03T00:47:37.762Z,993.21
2019-02-03T00:48:36.318Z,993.22
2019-02-03T00:49:34.862Z,993.24
2019-02-03T00:50:33.729Z,993.25
2019-02-03T00:51:32.271Z,993.29
2019-02-03T00:52:30.835Z,993.25
2019-02-03T00:53:29.611Z,993.24
2019-02-03T00:54:28.236Z,993.29
2019-02-03T00:55:26.784Z,993.3
2019-02-03T00:56:25.326Z,993.32
2019-02-03T00:57:23.891Z,993.34
2019-02-03T00:58:22.436Z,993.35
2019-02-03T00:59:21.012Z,993.4
2019-02-03T01:00:19.772Z,993.42
2019-02-03T01:01:18.308Z,993.4
2019-02-03T01:02:16.871Z,993.44
2019-02-03T01:03:15.516Z,993.47
2019-02-03T01:04:14.106Z,993.48
2019-02-03T01:05:12.664Z,993.48
2019-02-03T01:06:11.366Z,993.46
2019-02-03T01:07:09.952Z,993.61
2019-02-03T01:08:08.494Z,993.49
2019-02-03T01:09:07.115Z,993.52
2019-02-03T01:10:05.667Z,993.55
2019-02-03T01:11:04.246Z,993.58
2019-02-03T01:12:02.792Z,993.53
2019-02-03T01:13:01.403Z,993.59
2019-02-03T01:14:00.047Z,993.58
2019-02-03T01:14:58.478Z,993.58
2019-02-03T01:15:57.067Z,993.58
2019-02-03T01:16:55.656Z,993.64
2019-02-03T01:17:54.200Z,993.62
2019-02-03T01:18:52.796Z,993.63
2019-02-03T01:19:51.598Z,993.65
2019-02-03T01:20:50.138Z,993.62
2019-02-03T01:21:48.682Z,993.62
2019-02-03T01:22:47.246Z,993.6
2019-02-03T01:23:45.781Z,993.61
2019-02-03T01:24:44.418Z,993.66
2019-02-03T01:25:43.005Z,993.62
2019-02-03T01:26:41.818Z,993.67
2019-02-03T01:27:40.326Z,993.69
2019-02-03T01:28:38.910Z,993.72
2019-02-03T01:29:37.529Z,993.73
2019-02-03T01:30:36.094Z,993.77
2019-02-03T01:31:34.679Z,993.79
2019-02-03T01:32:33.273Z,993.76
2019-02-03T01:33:31.840Z,993.75
2019-02-03T01:34:30.400Z,993.76
2019-02-03T01:35:28.953Z,993.75
2019-02-03T01:36:27.493Z,993.76
2019-02-03T01:37:26.065Z,993.74
2019-02-03T01:38:24.618Z,993.69
2019-02-03T01:39:23.164Z,993.72
2019-02-03T01:40:21.944Z,993.73
2019-02-03T01:41:20.519Z,993.75
2019-02-03T01:42:19.105Z,993.77
2019-02-03T01:43:17.852Z,993.71
2019-02-03T01:44:16.414Z,993.71
2019-02-03T01:45:14.992Z,993.76
2019-02-03T01:46:13.626Z,993.76
2019-02-03T01:47:12.261Z,993.78
2019-02-03T01:48:10.859Z,993.73
2019-02-03T01:49:09.516Z,993.79
2019-02-03T01:50:08.122Z,993.79
2019-02-03T01:51:06.690Z,993.78
2019-02-03T01:52:05.451Z,993.78
2019-02-03T01:53:04.005Z,993.79
2019-02-03T01:54:02.562Z,993.85
2019-02-03T01:55:01.219Z,993.81
2019-02-03T01:55:59.864Z,993.85
2019-02-03T01:56:58.499Z,993.82
2019-02-03T01:57:57.060Z,993.94
2019-02-03T01:58:55.644Z,993.89
2019-02-03T01:59:54.323Z,993.85
2019-02-03T02:00:52.861Z,993.88
2019-02-03T02:01:51.709Z,993.88
2019-02-03T02:02:50.283Z,993.81
2019-02-03T02:03:48.851Z,993.78
2019-02-03T02:04:47.426Z,993.79
2019-02-03T02:05:45.994Z,993.73
2019-02-03T02:06:44.588Z,993.7
2019-02-03T02:07:51.062Z,993.73
2019-02-03T02:08:41.819Z,993.65
2019-02-03T02:09:40.372Z,993.68
2019-02-03T02:10:39.047Z,993.67
2019-02-03T02:11:37.664Z,993.61
2019-02-03T02:12:36.274Z,993.65
2019-02-03T02:13:34.810Z,993.63
2019-02-03T02:14:33.560Z,993.59
2019-02-03T02:15:32.132Z,993.6
2019-02-03T02:16:30.710Z,993.57
2019-02-03T02:17:29.238Z,993.65
2019-02-03T02:18:27.776Z,993.63
2019-02-03T02:19:26.327Z,993.64
2019-02-03T02:20:24.853Z,993.76
2019-02-03T02:21:23.710Z,993.79
2019-02-03T02:22:22.289Z,993.78
2019-02-03T02:23:20.846Z,993.87
2019-02-03T02:24:19.705Z,993.92
2019-02-03T02:25:18.266Z,994.09
2019-02-03T02:26:16.804Z,994.12
2019-02-03T02:27:15.368Z,994.19
2019-02-03T02:28:13.925Z,994.2
2019-02-03T02:29:12.456Z,994.27
2019-02-03T02:30:11.092Z,994.39
2019-02-03T02:31:09.901Z,994.5
2019-02-03T02:32:08.459Z,994.51
2019-02-03T02:33:06.979Z,994.48
2019-02-03T02:34:06.342Z,994.5
2019-02-03T02:35:04.889Z,994.6
2019-02-03T02:36:03.765Z,994.56
2019-02-03T02:37:02.319Z,994.66
2019-02-03T02:38:06.168Z,994.63
2019-02-03T02:38:59.524Z,994.71
2019-02-03T02:39:58.073Z,994.74
2019-02-03T02:40:56.629Z,994.74
2019-02-03T02:41:55.166Z,994.77
2019-02-03T02:42:53.787Z,994.83
2019-02-03T02:43:52.257Z,994.83
2019-02-03T02:44:50.810Z,995.01
2019-02-03T02:45:49.570Z,994.99
2019-02-03T02:46:48.141Z,994.99
2019-02-03T02:47:46.690Z,995.09
2019-02-03T02:48:45.533Z,995.1
2019-02-03T02:49:44.189Z,995.14
2019-02-03T02:50:42.773Z,995.25
2019-02-03T02:51:41.338Z,995.26
2019-02-03T02:52:40.074Z,995.35
2019-02-03T02:53:38.580Z,995.45
2019-02-03T02:54:37.267Z,995.39
2019-02-03T02:55:35.994Z,995.46
2019-02-03T02:56:34.549Z,995.52
2019-02-03T02:57:33.281Z,995.5
2019-02-03T02:58:31.836Z,995.58
2019-02-03T02:59:30.401Z,995.49
2019-02-03T03:00:28.947Z,995.44
2019-02-03T03:01:27.571Z,995.54
2019-02-03T03:02:26.110Z,995.52
2019-02-03T03:03:24.654Z,995.56
2019-02-03T03:04:23.331Z,995.58
2019-02-03T03:05:21.904Z,995.67
2019-02-03T03:06:20.639Z,995.62
2019-02-03T03:07:19.379Z,995.67
2019-02-03T03:08:19.490Z,995.65
2019-02-03T03:09:16.516Z,995.67
2019-02-03T03:10:15.034Z,995.67
2019-02-03T03:11:13.602Z,995.68
2019-02-03T03:12:12.167Z,995.64
2019-02-03T03:13:10.715Z,995.67
2019-02-03T03:14:09.327Z,995.67
2019-02-03T03:15:07.946Z,995.66
2019-02-03T03:16:06.483Z,995.77
2019-02-03T03:17:05.085Z,995.78
2019-02-03T03:18:03.785Z,995.76
2019-02-03T03:19:02.332Z,995.76
2019-02-03T03:20:00.887Z,995.74
2019-02-03T03:20:59.504Z,995.76
2019-02-03T03:21:58.075Z,995.74
2019-02-03T03:22:56.739Z,995.79
2019-02-03T03:23:55.296Z,995.79
2019-02-03T03:24:53.828Z,995.82
2019-02-03T03:25:52.365Z,995.75
2019-02-03T03:26:50.919Z,995.77
2019-02-03T03:27:49.453Z,995.84
2019-02-03T03:28:48.023Z,995.84
2019-02-03T03:29:46.580Z,995.9
2019-02-03T03:30:45.227Z,995.84
2019-02-03T03:31:43.975Z,995.93
2019-02-03T03:32:42.428Z,995.87
2019-02-03T03:33:40.943Z,995.9
2019-02-03T03:34:39.610Z,995.83
2019-02-03T03:35:38.187Z,995.87
2019-02-03T03:36:36.682Z,995.92
2019-02-03T03:37:35.371Z,995.82
2019-02-03T03:38:34.174Z,996
2019-02-03T03:39:32.651Z,995.89
2019-02-03T03:40:31.282Z,995.9
2019-02-03T03:41:29.884Z,995.88
2019-02-03T03:42:28.439Z,995.81
2019-02-03T03:43:27.061Z,995.87
2019-02-03T03:44:25.651Z,995.83
2019-02-03T03:45:24.203Z,995.88
2019-02-03T03:46:22.741Z,995.86
2019-02-03T03:47:21.311Z,995.93
2019-02-03T03:48:20.003Z,995.87
2019-02-03T03:49:18.549Z,995.85
2019-02-03T03:50:17.137Z,996.01
2019-02-03T03:51:15.685Z,995.96
2019-02-03T03:52:14.256Z,995.88
2019-02-03T03:53:12.795Z,996
2019-02-03T03:54:11.346Z,995.93
2019-02-03T03:55:09.903Z,995.92
2019-02-03T03:56:08.461Z,995.94
2019-02-03T03:57:07.030Z,995.93
2019-02-03T03:58:05.677Z,996
2019-02-03T03:59:04.189Z,995.99
2019-02-03T04:00:02.744Z,996.03
2019-02-03T04:01:01.402Z,996.05
2019-02-03T04:02:00.045Z,996.08
2019-02-03T04:02:58.582Z,996.09
2019-02-03T04:03:57.352Z,996.1
2019-02-03T04:04:55.997Z,996.14
2019-02-03T04:05:54.445Z,996.12
2019-02-03T04:06:53.003Z,996.13
2019-02-03T04:07:51.560Z,996.12
2019-02-03T04:08:50.112Z,996.1
2019-02-03T04:09:48.679Z,996.12
2019-02-03T04:10:47.262Z,996.16
2019-02-03T04:11:45.930Z,996.14
2019-02-03T04:12:44.479Z,996.22
2019-02-03T04:13:43.069Z,996.2
2019-02-03T04:14:41.630Z,996.2
2019-02-03T04:15:40.177Z,996.21
2019-02-03T04:16:38.739Z,996.21
2019-02-03T04:17:37.631Z,996.21
2019-02-03T04:18:36.166Z,996.19
2019-02-03T04:19:34.726Z,996.25
2019-02-03T04:20:33.276Z,996.22
2019-02-03T04:21:31.820Z,996.23
2019-02-03T04:22:30.345Z,996.2
2019-02-03T04:23:28.894Z,996.2
2019-02-03T04:24:27.525Z,996.2
2019-02-03T04:25:26.125Z,996.23
2019-02-03T04:26:24.688Z,996.24
2019-02-03T04:27:23.314Z,996.22
2019-02-03T04:28:21.992Z,996.21
2019-02-03T04:29:20.552Z,996.25
2019-02-03T04:30:19.355Z,996.31
2019-02-03T04:31:17.864Z,996.31
2019-02-03T04:32:16.404Z,996.38
2019-02-03T04:33:14.961Z,996.31
2019-02-03T04:34:13.559Z,996.36
2019-02-03T04:35:12.104Z,996.39
2019-02-03T04:36:10.662Z,996.4
2019-02-03T04:37:09.496Z,996.42
2019-02-03T04:38:08.222Z,996.45
2019-02-03T04:39:06.886Z,996.43
2019-02-03T04:40:05.461Z,996.47
2019-02-03T04:41:04.024Z,996.49
2019-02-03T04:42:02.570Z,996.45
2019-02-03T04:43:01.126Z,996.42
2019-02-03T04:43:59.668Z,996.47
2019-02-03T04:44:58.202Z,996.55
2019-02-03T04:45:56.748Z,996.55
2019-02-03T04:46:55.292Z,996.55
2019-02-03T04:47:53.924Z,996.67
2019-02-03T04:48:52.453Z,996.57
2019-02-03T04:49:51.006Z,996.65
2019-02-03T04:50:49.718Z,996.65
2019-02-03T04:51:48.256Z,996.61
2019-02-03T04:52:46.804Z,996.64
2019-02-03T04:53:45.596Z,996.64
2019-02-03T04:54:44.173Z,996.68
2019-02-03T04:55:42.767Z,996.79
2019-02-03T04:56:41.335Z,996.81
2019-02-03T04:57:39.977Z,996.76
2019-02-03T04:58:38.529Z,996.74
2019-02-03T04:59:37.214Z,996.83
2019-02-03T05:00:35.664Z,996.75
2019-02-03T05:01:34.185Z,996.78
2019-02-03T05:02:32.761Z,996.81
2019-02-03T05:03:31.306Z,996.83
2019-02-03T05:04:29.919Z,996.86
2019-02-03T05:05:28.473Z,996.84
2019-02-03T05:06:27.021Z,996.88
2019-02-03T05:07:25.553Z,996.94
2019-02-03T05:08:24.185Z,996.91
2019-02-03T05:09:22.733Z,996.95
2019-02-03T05:10:21.513Z,996.97
2019-02-03T05:11:20.090Z,996.94
2019-02-03T05:12:18.651Z,996.97
2019-02-03T05:13:17.193Z,997.03
2019-02-03T05:14:15.744Z,997.02
2019-02-03T05:15:14.289Z,997.03
2019-02-03T05:16:12.854Z,997.03
2019-02-03T05:17:11.607Z,997.11
2019-02-03T05:18:10.170Z,997.09
2019-02-03T05:19:08.699Z,997.06
2019-02-03T05:20:07.340Z,997.2
2019-02-03T05:21:05.951Z,997.15
2019-02-03T05:22:04.521Z,997.16
2019-02-03T05:23:03.227Z,997.18
2019-02-03T05:24:01.785Z,997.19
2019-02-03T05:25:00.482Z,997.29
2019-02-03T05:25:58.911Z,997.24
2019-02-03T05:26:57.470Z,997.23
2019-02-03T05:27:56.030Z,997.24
2019-02-03T05:28:54.583Z,997.29
2019-02-03T05:29:53.146Z,997.26
2019-02-03T05:30:51.889Z,997.42
2019-02-03T05:31:50.542Z,997.34
2019-02-03T05:32:49.006Z,997.33
2019-02-03T05:33:47.751Z,997.47
2019-02-03T05:34:46.293Z,997.41
2019-02-03T05:35:44.895Z,997.44
2019-02-03T05:36:43.509Z,997.44
2019-02-03T05:37:42.038Z,997.41
2019-02-03T05:38:40.662Z,997.52
2019-02-03T05:39:39.295Z,997.58
2019-02-03T05:40:37.968Z,997.54
2019-02-03T05:41:36.613Z,997.61
2019-02-03T05:42:35.154Z,997.55
2019-02-03T05:43:33.912Z,997.64
2019-02-03T05:44:32.444Z,997.57
2019-02-03T05:45:31.123Z,997.67
2019-02-03T05:46:29.688Z,997.67
2019-02-03T05:47:28.260Z,997.65
2019-02-03T05:48:26.817Z,997.76
2019-02-03T05:49:25.386Z,997.7
2019-02-03T05:50:23.930Z,997.75
2019-02-03T05:51:22.484Z,997.74
2019-02-03T05:52:21.001Z,997.78
2019-02-03T05:53:19.763Z,997.77
2019-02-03T05:54:18.335Z,997.85
2019-02-03T05:55:16.917Z,997.81
2019-02-03T05:56:15.752Z,997.87
2019-02-03T05:57:14.332Z,997.82
2019-02-03T05:58:12.869Z,997.86
2019-02-03T05:59:11.436Z,997.95
2019-02-03T06:00:10.107Z,997.9
2019-02-03T06:01:08.620Z,997.97
2019-02-03T06:02:09.965Z,998.02
2019-02-03T06:03:05.931Z,997.97
2019-02-03T06:04:04.498Z,998.02
2019-02-03T06:05:03.040Z,998.04
2019-02-03T06:06:01.670Z,998.08
2019-02-03T06:07:00.237Z,998.1
2019-02-03T06:07:58.791Z,998.21
2019-02-03T06:08:57.526Z,998.13
2019-02-03T06:09:56.074Z,998.12
2019-02-03T06:10:54.612Z,998.14
2019-02-03T06:11:53.163Z,998.19
2019-02-03T06:12:51.712Z,998.27
2019-02-03T06:13:50.283Z,998.27
2019-02-03T06:14:48.883Z,998.28
2019-02-03T06:15:47.641Z,998.32
2019-02-03T06:16:46.246Z,998.36
2019-02-03T06:17:44.791Z,998.34
2019-02-03T06:18:43.413Z,998.38
2019-02-03T06:19:42.061Z,998.44
2019-02-03T06:20:40.629Z,998.5
2019-02-03T06:21:39.268Z,998.59
2019-02-03T06:22:37.824Z,998.55
2019-02-03T06:23:36.375Z,998.55
2019-02-03T06:24:34.902Z,998.56
2019-02-03T06:25:33.453Z,998.53
2019-02-03T06:26:32.142Z,998.58
2019-02-03T06:27:30.767Z,998.63
2019-02-03T06:28:29.361Z,998.66
2019-02-03T06:29:27.962Z,998.66
2019-02-03T06:30:26.511Z,998.71
2019-02-03T06:31:25.236Z,998.66
2019-02-03T06:32:23.853Z,998.74
2019-02-03T06:33:22.423Z,998.8
2019-02-03T06:34:20.961Z,998.73
2019-02-03T06:35:19.506Z,998.76
2019-02-03T06:36:18.060Z,998.83
2019-02-03T06:37:16.603Z,998.82
2019-02-03T06:38:15.159Z,998.88
2019-02-03T06:39:13.700Z,998.86
2019-02-03T06:40:12.251Z,998.99
2019-02-03T06:41:10.815Z,999.08
2019-02-03T06:42:09.576Z,999.07
2019-02-03T06:43:08.149Z,999.07
2019-02-03T06:44:06.683Z,999.09
2019-02-03T06:45:05.245Z,999.16
2019-02-03T06:46:03.932Z,999.13
2019-02-03T06:47:02.476Z,999.12
2019-02-03T06:48:01.229Z,999.22
2019-02-03T06:48:59.812Z,999.27
2019-02-03T06:49:58.332Z,999.27
2019-02-03T06:50:56.875Z,999.33
2019-02-03T06:51:55.415Z,999.27
2019-02-03T06:52:54.032Z,999.34
2019-02-03T06:53:52.576Z,999.39
2019-02-03T06:54:51.272Z,999.49
2019-02-03T06:55:49.852Z,999.41
2019-02-03T06:56:48.399Z,999.46
2019-02-03T06:57:46.953Z,999.48
2019-02-03T06:58:45.670Z,999.55
2019-02-03T06:59:50.713Z,999.6
2019-02-03T07:00:42.741Z,999.58
2019-02-03T07:01:41.400Z,999.63
2019-02-03T07:02:39.972Z,999.71
2019-02-03T07:03:38.503Z,999.79
2019-02-03T07:04:37.059Z,999.82
2019-02-03T07:05:35.606Z,999.79
2019-02-03T07:06:34.187Z,999.83
2019-02-03T07:07:32.708Z,999.81
2019-02-03T07:08:31.253Z,999.84
2019-02-03T07:09:29.995Z,999.82
2019-02-03T07:10:28.547Z,999.97
2019-02-03T07:11:27.106Z,999.95
2019-02-03T07:12:25.743Z,1000
2019-02-03T07:13:24.335Z,999.98
2019-02-03T07:14:23.050Z,1000.02
2019-02-03T07:15:21.691Z,1000.02
2019-02-03T07:16:20.328Z,1000.05
2019-02-03T07:17:18.884Z,1000.1
2019-02-03T07:18:17.646Z,1000.15
2019-02-03T07:19:16.177Z,1000.13
2019-02-03T07:20:14.746Z,1000.31
2019-02-03T07:21:13.692Z,1000.19
2019-02-03T07:22:12.275Z,1000.2
2019-02-03T07:23:10.846Z,1000.19
2019-02-03T07:24:09.362Z,1000.17
2019-02-03T07:25:07.937Z,1000.19
2019-02-03T07:26:06.494Z,1000.21
2019-02-03T07:27:05.051Z,1000.24
2019-02-03T07:28:03.629Z,1000.32
2019-02-03T07:29:02.207Z,1000.33
2019-02-03T07:30:00.775Z,1000.26
2019-02-03T07:30:59.462Z,1000.34
2019-02-03T07:31:58.308Z,1000.45
2019-02-03T07:32:56.841Z,1000.4
2019-02-03T07:33:55.927Z,1000.44
2019-02-03T07:34:54.482Z,1000.5
2019-02-03T07:35:53.053Z,1000.51
2019-02-03T07:36:51.687Z,1000.51
2019-02-03T07:37:50.228Z,1000.61
2019-02-03T07:38:48.792Z,1000.59
2019-02-03T07:39:47.474Z,1000.54
2019-02-03T07:40:46.006Z,1000.61
2019-02-03T07:41:44.549Z,1000.62
2019-02-03T07:42:43.235Z,1000.63
2019-02-03T07:43:41.707Z,1000.61
2019-02-03T07:44:40.281Z,1000.71
2019-02-03T07:45:39.079Z,1000.75
2019-02-03T07:46:37.710Z,1000.76
2019-02-03T07:47:36.305Z,1000.75
2019-02-03T07:48:34.863Z,1000.8
2019-02-03T07:49:33.565Z,1000.75
2019-02-03T07:50:32.099Z,1000.73
2019-02-03T07:51:30.710Z,1000.72
2019-02-03T07:52:29.390Z,1000.83
2019-02-03T07:53:28.106Z,1000.86
2019-02-03T07:54:26.664Z,1000.79
2019-02-03T07:55:25.290Z,1000.89
2019-02-03T07:56:24.061Z,1000.87
2019-02-03T07:57:22.623Z,1000.93
2019-02-03T07:58:21.193Z,1000.89
2019-02-03T07:59:19.809Z,1000.91
2019-02-03T08:00:18.463Z,1000.92
2019-02-03T08:01:17.048Z,1001.04
2019-02-03T08:02:15.869Z,1000.97
2019-02-03T08:03:14.431Z,1001.01
2019-02-03T08:04:12.996Z,1001.02
2019-02-03T08:05:11.846Z,1001.03
2019-02-03T08:06:10.412Z,1001.12
2019-02-03T08:07:08.971Z,1001.05
2019-02-03T08:08:07.525Z,1001.14
2019-02-03T08:09:06.105Z,1001.11
2019-02-03T08:10:04.672Z,1001.23
2019-02-03T08:11:04.726Z,1001.19
2019-02-03T08:12:02.006Z,1001.26
2019-02-03T08:13:00.545Z,1001.28
2019-02-03T08:13:59.112Z,1001.25
2019-02-03T08:14:57.943Z,1001.3
2019-02-03T08:15:56.561Z,1001.33
2019-02-03T08:16:55.174Z,1001.31
2019-02-03T08:17:53.744Z,1001.34
2019-02-03T08:18:52.329Z,1001.35
2019-02-03T08:19:50.881Z,1001.36
2019-02-03T08:20:49.494Z,1001.3
2019-02-03T08:21:48.140Z,1001.34
2019-02-03T08:22:46.695Z,1001.35
2019-02-03T08:23:45.293Z,1001.36
2019-02-03T08:24:44.064Z,1001.41
2019-02-03T08:25:42.943Z,1001.47
2019-02-03T08:26:41.696Z,1001.55
2019-02-03T08:27:40.288Z,1001.49
2019-02-03T08:28:38.838Z,1001.53
2019-02-03T08:29:37.500Z,1001.62
2019-02-03T08:30:36.171Z,1001.57
2019-02-03T08:31:34.693Z,1001.63
2019-02-03T08:32:33.400Z,1001.63
2019-02-03T08:33:32.016Z,1001.64
2019-02-03T08:34:30.564Z,1001.72
2019-02-03T08:35:29.164Z,1001.73
2019-02-03T08:36:27.951Z,1001.74
2019-02-03T08:37:26.494Z,1001.76
2019-02-03T08:38:25.012Z,1001.74
2019-02-03T08:39:23.743Z,1001.77
2019-02-03T08:40:22.292Z,1001.77
2019-02-03T08:41:20.927Z,1001.78
2019-02-03T08:42:19.462Z,1001.84
2019-02-03T08:43:17.972Z,1001.84
2019-02-03T08:44:16.546Z,1001.81
2019-02-03T08:45:15.129Z,1001.81
2019-02-03T08:46:13.682Z,1001.81
2019-02-03T08:47:12.303Z,1001.85
2019-02-03T08:48:10.860Z,1001.84
2019-02-03T08:49:09.625Z,1001.92
2019-02-03T08:50:08.230Z,1001.85
2019-02-03T08:51:07.629Z,1001.87
2019-02-03T08:52:05.603Z,1001.87
2019-02-03T08:53:04.179Z,1001.9
2019-02-03T08:54:02.735Z,1001.89
2019-02-03T08:55:01.388Z,1001.97
2019-02-03T08:56:00.122Z,1001.94
2019-02-03T08:56:58.634Z,1001.95
2019-02-03T08:57:57.938Z,1001.94
2019-02-03T08:58:56.081Z,1001.97
2019-02-03T08:59:54.623Z,1001.97
2019-02-03T09:00:55.217Z,1002.03
2019-02-03T09:01:53.821Z,1002.04
2019-02-03T09:02:52.383Z,1002.17
2019-02-03T09:03:50.907Z,1002.17
2019-02-03T09:04:49.551Z,1002.13
2019-02-03T09:05:48.205Z,1002.13
2019-02-03T09:06:46.782Z,1002.13
2019-02-03T09:07:45.468Z,1002.21
2019-02-03T09:08:44.127Z,1002.14
2019-02-03T09:09:42.662Z,1002.14
2019-02-03T09:10:47.953Z,1002.14
2019-02-03T09:11:39.894Z,1002.14
2019-02-03T09:12:38.474Z,1002.18
2019-02-03T09:13:37.041Z,1002.2
2019-02-03T09:14:35.596Z,1002.22
2019-02-03T09:15:34.146Z,1002.23
2019-02-03T09:16:32.683Z,1002.21
2019-02-03T09:17:31.236Z,1002.37
2019-02-03T09:18:29.993Z,1002.29
2019-02-03T09:19:28.563Z,1002.36
2019-02-03T09:20:27.150Z,1002.44
2019-02-03T09:21:25.785Z,1002.45
2019-02-03T09:22:24.369Z,1002.41
2019-02-03T09:23:22.957Z,1002.47
2019-02-03T09:24:21.651Z,1002.41
2019-02-03T09:25:20.240Z,1002.48
2019-02-03T09:28:00.619Z,1002.49
2019-02-03T09:28:59.209Z,1002.59
2019-02-03T09:29:57.998Z,1002.6
2019-02-03T09:30:56.535Z,1002.57
2019-02-03T09:31:55.182Z,1002.6
2019-02-03T09:32:53.773Z,1002.61
2019-02-03T09:33:52.348Z,1002.55
2019-02-03T09:34:50.920Z,1002.67
2019-02-03T09:35:49.465Z,1002.67
2019-02-03T09:36:48.260Z,1002.68
2019-02-03T09:37:46.803Z,1002.75
2019-02-03T09:40:09.547Z,1002.78
2019-02-03T09:41:08.118Z,1002.81
2019-02-03T09:42:06.683Z,1002.79
2019-02-03T09:43:05.283Z,1002.85
2019-02-03T09:44:03.890Z,1002.93
2019-02-03T09:45:02.424Z,1002.88
2019-02-03T09:46:01.010Z,1003.03
2019-02-03T09:46:59.855Z,1002.97
2019-02-03T09:47:58.422Z,1003.02
2019-02-03T09:48:56.965Z,1003.01
2019-02-03T09:49:55.849Z,1003.1
2019-02-03T09:50:54.414Z,1003.02
2019-02-03T09:51:52.959Z,1003.14
2019-02-03T09:52:51.520Z,1003.07
2019-02-03T09:53:50.070Z,1003.05
2019-02-03T09:54:50.120Z,1003.07
2019-02-03T09:55:47.386Z,1003.07
2019-02-03T09:56:45.713Z,1003.02
2019-02-03T09:57:44.250Z,1003.15
2019-02-03T09:58:42.791Z,1003.17
2019-02-03T09:59:41.621Z,1003.14
2019-02-03T10:00:40.465Z,1003.28
2019-02-03T10:01:39.053Z,1003.22
2019-02-03T10:02:37.662Z,1003.22
2019-02-03T10:03:36.268Z,1003.29
2019-02-03T10:04:34.852Z,1003.23
2019-02-03T10:05:33.645Z,1003.31
2019-02-03T10:06:32.341Z,1003.31
2019-02-03T10:07:31.034Z,1003.32
2019-02-03T10:08:40.227Z,1003.31
2019-02-03T10:09:28.212Z,1003.36
2019-02-03T10:10:26.777Z,1003.36
2019-02-03T10:11:25.389Z,1003.36
2019-02-03T10:12:23.940Z,1003.38
2019-02-03T10:13:22.623Z,1003.46
2019-02-03T10:14:21.245Z,1003.45
2019-02-03T10:15:20.018Z,1003.51
2019-02-03T10:16:18.592Z,1003.52
2019-02-03T10:17:17.242Z,1003.55
2019-02-03T10:18:15.808Z,1003.57
2019-02-03T10:19:14.386Z,1003.53
2019-02-03T10:20:12.901Z,1003.61
2019-02-03T10:21:11.466Z,1003.69
2019-02-03T10:22:10.087Z,1003.67
2019-02-03T10:23:08.708Z,1003.65
2019-02-03T10:24:07.220Z,1003.66
2019-02-03T10:25:05.937Z,1003.69
2019-02-03T10:26:04.521Z,1003.73
2019-02-03T10:27:03.378Z,1003.8
2019-02-03T10:28:01.932Z,1003.68
2019-02-03T10:29:00.499Z,1003.73
2019-02-03T10:29:59.055Z,1003.73
2019-02-03T10:30:57.596Z,1003.74
2019-02-03T10:31:56.112Z,1003.74
2019-02-03T10:32:54.671Z,1003.74
2019-02-03T10:33:53.199Z,1003.76
2019-02-03T10:34:51.757Z,1003.77
2019-02-03T10:35:50.300Z,1003.82
2019-02-03T10:36:48.850Z,1003.83
2019-02-03T10:37:47.838Z,1003.83
2019-02-03T10:38:46.419Z,1003.8
2019-02-03T10:39:45.117Z,1003.89
2019-02-03T10:40:43.708Z,1003.91
2019-02-03T10:41:42.297Z,1003.87
2019-02-03T10:42:40.825Z,1003.82
2019-02-03T10:43:39.385Z,1003.78
2019-02-03T10:44:38.030Z,1003.88
2019-02-03T10:45:36.582Z,1003.83
2019-02-03T10:46:35.242Z,1003.85
2019-02-03T10:47:33.901Z,1003.85
2019-02-03T10:48:32.479Z,1003.87
2019-02-03T10:49:31.028Z,1003.79
2019-02-03T10:50:29.782Z,1003.87
2019-02-03T10:51:28.413Z,1003.87
2019-02-03T10:52:27.025Z,1003.85
2019-02-03T10:53:25.669Z,1003.91
2019-02-03T10:54:24.245Z,1003.87
2019-02-03T10:55:22.910Z,1003.87
2019-02-03T10:56:21.715Z,1003.89
2019-02-03T10:57:20.268Z,1003.98
2019-02-03T10:58:18.840Z,1003.98
2019-02-03T10:59:17.453Z,1003.92
2019-02-03T11:00:18.018Z,1003.98
2019-02-03T11:01:14.555Z,1003.97
2019-02-03T11:02:13.132Z,1003.98
2019-02-03T11:03:12.158Z,1004.02
2019-02-03T11:04:10.585Z,1003.97
2019-02-03T11:05:09.154Z,1003.95
2019-02-03T11:06:07.893Z,1004.01
2019-02-03T11:07:06.447Z,1003.99
2019-02-03T11:08:05.189Z,1003.95
2019-02-03T11:09:03.669Z,1003.99
2019-02-03T11:10:02.199Z,1004.07
2019-02-03T11:11:00.870Z,1004.06
2019-02-03T11:11:59.338Z,1004.05
2019-02-03T11:12:57.892Z,1004.11
2019-02-03T11:13:56.483Z,1004.03
2019-02-03T11:14:55.168Z,1004.08
2019-02-03T11:15:53.739Z,1004.14
2019-02-03T11:16:52.369Z,1004.16
2019-02-03T11:17:50.924Z,1004.13
2019-02-03T11:18:49.748Z,1004.11
2019-02-03T11:19:48.348Z,1004.13
2019-02-03T11:20:46.887Z,1004.12
2019-02-03T11:21:45.487Z,1004.19
2019-02-03T11:22:43.959Z,1004.23
2019-02-03T11:23:42.546Z,1004.19
2019-02-03T11:24:41.094Z,1004.18
2019-02-03T11:25:39.909Z,1004.18
2019-02-03T11:26:38.437Z,1004.23
2019-02-03T11:27:36.963Z,1004.24
2019-02-03T11:28:35.789Z,1004.26
2019-02-03T11:29:34.379Z,1004.24
2019-02-03T11:30:33.044Z,1004.26
2019-02-03T11:31:31.675Z,1004.18
2019-02-03T11:32:30.172Z,1004.24
2019-02-03T11:33:28.717Z,1004.27
2019-02-03T11:34:27.295Z,1004.25
2019-02-03T11:35:26.104Z,1004.35
2019-02-03T11:36:24.630Z,1004.35
2019-02-03T11:37:23.210Z,1004.34
2019-02-03T11:38:21.993Z,1004.34
2019-02-03T11:39:20.586Z,1004.32
2019-02-03T11:40:19.166Z,1004.45
2019-02-03T11:41:17.720Z,1004.37
2019-02-03T11:42:16.415Z,1004.37
2019-02-03T11:43:15.013Z,1004.39
2019-02-03T11:44:13.780Z,1004.4
2019-02-03T11:45:12.382Z,1004.37
2019-02-03T11:46:10.910Z,1004.42
2019-02-03T11:47:09.710Z,1004.4
2019-02-03T11:48:08.314Z,1004.35
2019-02-03T11:49:07.005Z,1004.44
2019-02-03T11:50:05.803Z,1004.42
2019-02-03T11:51:04.378Z,1004.47
2019-02-03T11:52:02.996Z,1004.44
2019-02-03T11:53:01.683Z,1004.43
2019-02-03T11:54:00.283Z,1004.46
2019-02-03T11:54:58.822Z,1004.4
2019-02-03T11:55:57.427Z,1004.57
2019-02-03T11:56:55.973Z,1004.46
2019-02-03T11:57:54.633Z,1004.5
2019-02-03T11:58:53.228Z,1004.52
2019-02-03T11:59:51.919Z,1004.46
2019-02-03T12:00:50.480Z,1004.55
2019-02-03T12:01:49.042Z,1004.54
2019-02-03T12:02:47.942Z,1004.61
2019-02-03T12:03:46.497Z,1004.63
2019-02-03T12:04:45.032Z,1004.59
2019-02-03T12:05:43.629Z,1004.58
2019-02-03T12:06:42.364Z,1004.59
2019-02-03T12:07:40.926Z,1004.61